createdAt,value
2022-12-27T00:00:17.422Z,70.76
2022-12-27T00:01:17.385Z,70.65
2022-12-27T00:02:17.398Z,70.76
2022-12-27T00:03:17.397Z,70.34
2022-12-27T00:04:17.353Z,70.34
2022-12-27T00:05:17.362Z,70.55
2022-12-27T00:06:17.327Z,70.55
2022-12-27T00:07:17.324Z,70.55
2022-12-27T00:08:17.292Z,70.86
2022-12-27T00:09:17.284Z,70.79
2022-12-27T00:10:17.268Z,70.89
2022-12-27T00:11:17.269Z,70.37
2022-12-27T00:12:17.247Z,71.23
2022-12-27T00:13:17.240Z,71.13
2022-12-27T00:14:17.231Z,71.23
2022-12-27T00:15:17.217Z,70.92
2022-12-27T00:16:17.244Z,71.55
2022-12-27T00:17:17.214Z,71.34
2022-12-27T00:18:17.191Z,71.44
2022-12-27T00:19:17.172Z,72.37
2022-12-27T00:20:17.166Z,72.06
2022-12-27T00:21:17.172Z,72.16
2022-12-27T00:22:17.140Z,72.09
2022-12-27T00:23:17.129Z,72.40
2022-12-27T00:24:17.116Z,72.30
2022-12-27T00:25:17.113Z,71.99
2022-12-27T00:26:17.111Z,71.99
2022-12-27T00:27:17.092Z,72.81
2022-12-27T00:28:17.075Z,73.02
2022-12-27T00:29:17.063Z,72.71
2022-12-27T00:30:17.052Z,72.71
2022-12-27T00:31:17.123Z,72.19
2022-12-27T00:32:17.031Z,72.40
2022-12-27T00:33:17.041Z,72.61
2022-12-27T00:34:17.011Z,72.81
2022-12-27T00:35:17.076Z,72.85
2022-12-27T00:36:16.997Z,72.50
2022-12-27T00:37:17.027Z,72.71
2022-12-27T00:38:16.966Z,72.71
2022-12-27T00:39:16.973Z,73.26
2022-12-27T00:40:16.955Z,73.22
2022-12-27T00:41:16.942Z,72.95
2022-12-27T00:42:16.928Z,72.71
2022-12-27T00:43:16.918Z,73.22
2022-12-27T00:44:16.905Z,73.02
2022-12-27T00:45:16.898Z,73.12
2022-12-27T00:46:16.899Z,72.50
2022-12-27T00:47:16.869Z,72.50
2022-12-27T00:48:16.857Z,72.30
2022-12-27T00:49:16.931Z,72.40
2022-12-27T00:50:16.830Z,72.19
2022-12-27T00:51:16.837Z,72.71
2022-12-27T00:52:16.811Z,72.50
2022-12-27T00:53:16.810Z,72.50
2022-12-27T00:54:16.792Z,72.95
2022-12-27T00:55:16.781Z,72.95
2022-12-27T00:56:16.780Z,73.05
2022-12-27T00:57:16.760Z,73.36
2022-12-27T00:58:16.746Z,73.26
2022-12-27T00:59:16.739Z,73.05
2022-12-27T01:00:16.731Z,73.47
2022-12-27T01:01:16.876Z,73.57
2022-12-27T01:02:16.746Z,73.26
2022-12-27T01:03:16.713Z,73.47
2022-12-27T01:04:16.682Z,73.50
2022-12-27T01:05:16.702Z,74.12
2022-12-27T01:06:16.683Z,73.98
2022-12-27T01:07:16.659Z,73.88
2022-12-27T01:08:16.643Z,74.02
2022-12-27T01:09:16.629Z,73.91
2022-12-27T01:10:16.619Z,73.81
2022-12-27T01:11:16.624Z,74.33
2022-12-27T01:12:16.602Z,74.43
2022-12-27T01:13:16.591Z,74.33
2022-12-27T01:14:16.579Z,74.33
2022-12-27T01:15:16.574Z,74.98
2022-12-27T01:16:16.620Z,74.88
2022-12-27T01:17:16.550Z,75.05
2022-12-27T01:18:16.533Z,75.19
2022-12-27T01:19:16.522Z,75.49
2022-12-27T01:20:16.529Z,75.39
2022-12-27T01:21:16.602Z,75.60
2022-12-27T01:22:16.492Z,75.60
2022-12-27T01:23:16.481Z,75.70
2022-12-27T01:24:16.478Z,76.01
2022-12-27T01:25:16.458Z,76.22
2022-12-27T01:26:16.467Z,76.22
2022-12-27T01:27:16.444Z,76.43
2022-12-27T01:28:16.424Z,76.22
2022-12-27T01:29:16.419Z,76.73
2022-12-27T01:30:16.402Z,76.77
2022-12-27T01:31:16.474Z,77.39
2022-12-27T01:32:16.381Z,77.36
2022-12-27T01:33:24.228Z,76.98
2022-12-27T01:34:16.364Z,76.98
2022-12-27T01:35:16.354Z,77.50
2022-12-27T01:36:16.353Z,76.87
2022-12-27T01:37:16.347Z,77.60
2022-12-27T01:38:16.319Z,77.91
2022-12-27T01:39:16.306Z,78.01
2022-12-27T01:40:16.304Z,77.94
2022-12-27T01:41:16.309Z,77.84
2022-12-27T01:42:16.285Z,77.70
2022-12-27T01:43:16.264Z,77.60
2022-12-27T01:44:16.254Z,77.70
2022-12-27T01:45:16.248Z,78.11
2022-12-27T01:46:16.291Z,77.70
2022-12-27T01:47:16.218Z,77.60
2022-12-27T01:48:16.226Z,77.70
2022-12-27T01:49:16.205Z,78.01
2022-12-27T01:50:16.188Z,77.81
2022-12-27T01:51:16.190Z,77.81
2022-12-27T01:52:16.175Z,78.05
2022-12-27T01:53:16.189Z,78.11
2022-12-27T01:54:16.146Z,77.50
2022-12-27T01:55:16.135Z,77.43
2022-12-27T01:56:16.136Z,78.01
2022-12-27T01:57:16.113Z,78.36
2022-12-27T01:58:16.109Z,78.56
2022-12-27T01:59:16.095Z,77.94
2022-12-27T02:00:16.081Z,78.05
2022-12-27T02:01:16.189Z,78.46
2022-12-27T02:02:16.219Z,77.94
2022-12-27T02:03:16.149Z,78.25
2022-12-27T02:04:16.043Z,78.15
2022-12-27T02:05:16.040Z,78.36
2022-12-27T02:06:16.030Z,79.08
2022-12-27T02:07:16.007Z,79.08
2022-12-27T02:08:15.997Z,78.98
2022-12-27T02:09:16.008Z,78.91
2022-12-27T02:10:15.976Z,79.19
2022-12-27T02:11:15.981Z,79.08
2022-12-27T02:12:15.970Z,79.19
2022-12-27T02:13:15.954Z,78.88
2022-12-27T02:14:15.940Z,79.08
2022-12-27T02:15:15.922Z,79.22
2022-12-27T02:16:15.960Z,78.98
2022-12-27T02:17:15.899Z,79.39
2022-12-27T02:18:15.912Z,79.60
2022-12-27T02:19:15.877Z,79.33
2022-12-27T02:20:15.872Z,78.98
2022-12-27T02:21:15.869Z,78.91
2022-12-27T02:22:15.850Z,78.91
2022-12-27T02:23:15.836Z,79.74
2022-12-27T02:24:15.828Z,79.74
2022-12-27T02:25:15.831Z,79.53
2022-12-27T02:26:15.819Z,79.02
2022-12-27T02:27:15.791Z,79.33
2022-12-27T02:28:15.781Z,79.12
2022-12-27T02:29:15.770Z,79.74
2022-12-27T02:30:15.758Z,79.39
2022-12-27T02:31:15.859Z,79.12
2022-12-27T02:32:15.802Z,79.08
2022-12-27T02:33:15.736Z,78.98
2022-12-27T02:34:15.721Z,78.77
2022-12-27T02:35:15.714Z,78.88
2022-12-27T02:36:15.705Z,78.98
2022-12-27T02:37:15.684Z,78.56
2022-12-27T02:38:15.676Z,78.56
2022-12-27T02:39:15.665Z,78.98
2022-12-27T02:40:15.653Z,78.46
2022-12-27T02:41:15.679Z,78.46
2022-12-27T02:42:15.632Z,78.36
2022-12-27T02:43:15.619Z,78.05
2022-12-27T02:44:15.610Z,78.46
2022-12-27T02:45:15.604Z,78.15
2022-12-27T02:46:21.220Z,78.46
2022-12-27T02:47:16.576Z,77.94
2022-12-27T02:48:15.569Z,78.77
2022-12-27T02:49:15.559Z,78.98
2022-12-27T02:50:15.546Z,78.88
2022-12-27T02:51:15.544Z,77.91
2022-12-27T02:52:15.526Z,77.81
2022-12-27T02:53:15.512Z,77.50
2022-12-27T02:54:15.503Z,77.81
2022-12-27T02:55:15.492Z,77.74
2022-12-27T02:56:15.502Z,78.11
2022-12-27T02:57:15.502Z,77.60
2022-12-27T02:58:15.461Z,77.94
2022-12-27T02:59:15.448Z,78.01
2022-12-27T03:00:15.455Z,77.94
2022-12-27T03:01:15.641Z,78.01
2022-12-27T03:02:15.580Z,78.01
2022-12-27T03:03:15.515Z,78.15
2022-12-27T03:04:15.397Z,77.91
2022-12-27T03:05:15.384Z,77.91
2022-12-27T03:06:15.390Z,77.70
2022-12-27T03:07:15.364Z,77.70
2022-12-27T03:08:15.352Z,78.11
2022-12-27T03:09:15.343Z,78.15
2022-12-27T03:10:15.331Z,77.94
2022-12-27T03:11:15.329Z,77.84
2022-12-27T03:12:15.319Z,77.94
2022-12-27T03:13:15.330Z,78.05
2022-12-27T03:14:15.294Z,78.05
2022-12-27T03:15:15.275Z,78.15
2022-12-27T03:16:15.303Z,77.84
2022-12-27T03:17:15.255Z,77.64
2022-12-27T03:18:15.245Z,78.15
2022-12-27T03:19:15.234Z,77.64
2022-12-27T03:20:15.224Z,78.36
2022-12-27T03:21:15.229Z,77.74
2022-12-27T03:22:15.204Z,77.94
2022-12-27T03:23:15.199Z,78.05
2022-12-27T03:24:15.191Z,78.05
2022-12-27T03:25:15.173Z,78.05
2022-12-27T03:26:15.172Z,78.15
2022-12-27T03:27:15.149Z,78.05
2022-12-27T03:28:15.155Z,78.29
2022-12-27T03:29:15.143Z,78.36
2022-12-27T03:30:15.124Z,78.25
2022-12-27T03:31:15.146Z,78.15
2022-12-27T03:32:15.096Z,78.36
2022-12-27T03:33:15.098Z,78.36
2022-12-27T03:34:15.075Z,78.56
2022-12-27T03:35:15.066Z,77.98
2022-12-27T03:36:15.060Z,77.94
2022-12-27T03:37:15.074Z,77.94
2022-12-27T03:38:15.029Z,78.19
2022-12-27T03:39:15.021Z,78.50
2022-12-27T03:40:15.047Z,78.60
2022-12-27T03:41:14.999Z,79.02
2022-12-27T03:42:14.998Z,78.88
2022-12-27T03:43:14.977Z,78.70
2022-12-27T03:44:14.968Z,78.39
2022-12-27T03:45:14.975Z,79.08
2022-12-27T03:46:14.993Z,78.25
2022-12-27T03:47:14.955Z,78.36
2022-12-27T03:48:14.928Z,78.15
2022-12-27T03:49:14.911Z,78.05
2022-12-27T03:50:14.906Z,78.15
2022-12-27T03:51:14.897Z,78.05
2022-12-27T03:52:14.892Z,77.94
2022-12-27T03:53:14.873Z,77.64
2022-12-27T03:54:14.875Z,78.15
2022-12-27T03:55:14.848Z,78.05
2022-12-27T03:56:14.870Z,78.36
2022-12-27T03:57:14.841Z,78.15
2022-12-27T03:58:14.820Z,77.94
2022-12-27T03:59:14.806Z,78.05
2022-12-27T04:00:14.796Z,78.05
2022-12-27T04:01:14.924Z,78.05
2022-12-27T04:02:14.920Z,78.25
2022-12-27T04:03:14.817Z,78.36
2022-12-27T04:04:14.752Z,78.25
2022-12-27T04:05:14.741Z,78.05
2022-12-27T04:06:14.731Z,78.05
2022-12-27T04:07:14.733Z,77.53
2022-12-27T04:08:14.710Z,77.84
2022-12-27T04:09:14.697Z,78.05
2022-12-27T04:10:14.690Z,77.94
2022-12-27T04:11:14.693Z,78.01
2022-12-27T04:12:14.678Z,78.15
2022-12-27T04:13:14.655Z,78.05
2022-12-27T04:14:14.646Z,77.84
2022-12-27T04:15:14.635Z,78.15
2022-12-27T04:16:14.693Z,77.94
2022-12-27T04:17:14.641Z,77.91
2022-12-27T04:18:14.604Z,78.15
2022-12-27T04:19:14.591Z,77.74
2022-12-27T04:20:14.581Z,78.25
2022-12-27T04:21:14.568Z,77.91
2022-12-27T04:22:14.568Z,77.74
2022-12-27T04:23:14.548Z,77.53
2022-12-27T04:24:14.537Z,77.64
2022-12-27T04:25:14.534Z,77.94
2022-12-27T04:26:14.520Z,78.05
2022-12-27T04:27:14.526Z,77.94
2022-12-27T04:28:14.497Z,77.74
2022-12-27T04:29:14.488Z,77.84
2022-12-27T04:30:14.476Z,77.43
2022-12-27T04:31:14.577Z,78.25
2022-12-27T04:32:14.466Z,77.77
2022-12-27T04:33:14.463Z,78.05
2022-12-27T04:34:14.437Z,77.77
2022-12-27T04:35:14.423Z,77.74
2022-12-27T04:36:14.410Z,77.94
2022-12-27T04:37:14.467Z,77.53
2022-12-27T04:38:14.388Z,78.15
2022-12-27T04:39:14.375Z,78.39
2022-12-27T04:40:14.368Z,77.77
2022-12-27T04:41:14.359Z,77.56
2022-12-27T04:42:14.375Z,77.43
2022-12-27T04:43:14.348Z,77.43
2022-12-27T04:44:14.327Z,77.98
2022-12-27T04:45:15.549Z,77.77
2022-12-27T04:46:14.353Z,77.84
2022-12-27T04:47:14.306Z,77.84
2022-12-27T04:48:14.282Z,77.53
2022-12-27T04:49:14.293Z,78.15
2022-12-27T04:50:14.266Z,77.74
2022-12-27T04:51:14.249Z,78.08
2022-12-27T04:52:14.252Z,77.94
2022-12-27T04:53:14.230Z,77.98
2022-12-27T04:54:14.229Z,77.53
2022-12-27T04:55:14.212Z,77.53
2022-12-27T04:56:14.196Z,77.12
2022-12-27T04:57:14.195Z,78.05
2022-12-27T04:58:14.173Z,77.47
2022-12-27T04:59:14.161Z,77.12
2022-12-27T05:00:14.230Z,77.12
2022-12-27T05:01:14.564Z,77.22
2022-12-27T05:02:14.276Z,77.74
2022-12-27T05:03:14.329Z,77.64
2022-12-27T05:04:14.124Z,77.64
2022-12-27T05:05:14.126Z,77.77
2022-12-27T05:06:14.096Z,77.74
2022-12-27T05:07:14.087Z,77.53
2022-12-27T05:08:14.069Z,77.84
2022-12-27T05:09:17.333Z,77.64
2022-12-27T05:10:15.046Z,77.64
2022-12-27T05:11:14.035Z,77.12
2022-12-27T05:12:14.046Z,77.33
2022-12-27T05:13:14.012Z,77.12
2022-12-27T05:14:14.003Z,77.01
2022-12-27T05:15:13.990Z,77.22
2022-12-27T05:16:14.084Z,77.01
2022-12-27T05:17:13.986Z,76.60
2022-12-27T05:18:13.960Z,76.81
2022-12-27T05:19:13.948Z,76.84
2022-12-27T05:20:13.943Z,76.81
2022-12-27T05:21:13.944Z,76.70
2022-12-27T05:22:13.930Z,76.60
2022-12-27T05:23:13.906Z,76.70
2022-12-27T05:24:13.901Z,76.60
2022-12-27T05:25:13.884Z,76.95
2022-12-27T05:26:13.873Z,76.95
2022-12-27T05:27:13.886Z,77.05
2022-12-27T05:28:13.869Z,77.05
2022-12-27T05:29:13.839Z,77.26
2022-12-27T05:30:13.831Z,77.05
2022-12-27T05:31:13.878Z,77.26
2022-12-27T05:32:14.077Z,77.05
2022-12-27T05:33:13.798Z,76.95
2022-12-27T05:34:13.786Z,77.15
2022-12-27T05:35:13.779Z,77.05
2022-12-27T05:36:13.767Z,77.05
2022-12-27T05:37:13.781Z,76.84
2022-12-27T05:38:13.750Z,76.74
2022-12-27T05:39:13.736Z,76.95
2022-12-27T05:40:13.725Z,76.95
2022-12-27T05:41:13.713Z,76.74
2022-12-27T05:42:13.709Z,77.05
2022-12-27T05:43:13.689Z,76.84
2022-12-27T05:44:13.680Z,77.05
2022-12-27T05:45:13.673Z,76.95
2022-12-27T05:46:13.689Z,76.95
2022-12-27T05:47:13.658Z,77.05
2022-12-27T05:48:13.644Z,76.95
2022-12-27T05:49:13.630Z,77.15
2022-12-27T05:50:13.631Z,77.15
2022-12-27T05:51:13.606Z,76.84
2022-12-27T05:52:13.611Z,77.15
2022-12-27T05:53:13.615Z,76.70
2022-12-27T05:54:13.572Z,76.91
2022-12-27T05:55:13.562Z,76.91
2022-12-27T05:56:13.551Z,76.39
2022-12-27T05:57:13.549Z,76.50
2022-12-27T05:58:13.527Z,76.50
2022-12-27T05:59:13.518Z,76.91
2022-12-27T06:00:13.506Z,76.60
2022-12-27T06:01:13.507Z,76.50
2022-12-27T06:02:13.670Z,76.60
2022-12-27T06:03:13.585Z,76.39
2022-12-27T06:04:13.464Z,76.50
2022-12-27T06:05:13.463Z,76.39
2022-12-27T06:06:13.440Z,76.60
2022-12-27T06:07:13.443Z,76.50
2022-12-27T06:08:13.420Z,76.50
2022-12-27T06:09:13.432Z,76.39
2022-12-27T06:10:13.403Z,76.60
2022-12-27T06:11:13.398Z,76.39
2022-12-27T06:12:13.411Z,76.70
2022-12-27T06:13:13.377Z,76.81
2022-12-27T06:14:13.358Z,76.81
2022-12-27T06:15:13.349Z,76.84
2022-12-27T06:16:13.389Z,76.50
2022-12-27T06:17:13.350Z,77.33
2022-12-27T06:18:13.315Z,76.81
2022-12-27T06:19:13.305Z,76.53
2022-12-27T06:20:13.296Z,76.64
2022-12-27T06:21:13.288Z,76.53
2022-12-27T06:22:13.284Z,76.84
2022-12-27T06:23:13.263Z,76.95
2022-12-27T06:24:13.251Z,76.84
2022-12-27T06:25:14.457Z,76.84
2022-12-27T06:26:13.232Z,76.84
2022-12-27T06:27:13.293Z,77.05
2022-12-27T06:28:13.214Z,76.95
2022-12-27T06:29:13.203Z,76.84
2022-12-27T06:30:13.191Z,76.84
2022-12-27T06:31:13.181Z,77.26
2022-12-27T06:32:13.179Z,77.15
2022-12-27T06:33:13.158Z,77.15
2022-12-27T06:34:13.155Z,77.26
2022-12-27T06:35:13.136Z,77.87
2022-12-27T06:36:13.121Z,77.60
2022-12-27T06:37:13.123Z,77.47
2022-12-27T06:38:13.101Z,77.29
2022-12-27T06:39:13.091Z,77.81
2022-12-27T06:40:13.078Z,77.70
2022-12-27T06:41:13.087Z,77.70
2022-12-27T06:42:13.076Z,78.12
2022-12-27T06:43:13.050Z,77.91
2022-12-27T06:44:13.043Z,78.12
2022-12-27T06:45:13.026Z,77.50
2022-12-27T06:46:17.356Z,78.02
2022-12-27T06:47:13.021Z,78.33
2022-12-27T06:48:12.992Z,77.91
2022-12-27T06:49:12.987Z,77.91
2022-12-27T06:50:12.971Z,77.60
2022-12-27T06:51:12.977Z,77.91
2022-12-27T06:52:12.962Z,78.12
2022-12-27T06:53:12.940Z,78.43
2022-12-27T06:54:12.928Z,78.33
2022-12-27T06:55:12.919Z,77.91
2022-12-27T06:56:12.922Z,78.08
2022-12-27T06:57:12.932Z,77.91
2022-12-27T06:58:12.906Z,78.12
2022-12-27T06:59:12.875Z,78.22
2022-12-27T07:00:12.860Z,78.22
2022-12-27T07:01:13.025Z,78.12
2022-12-27T07:02:12.982Z,78.02
2022-12-27T07:03:12.908Z,77.91
2022-12-27T07:04:12.821Z,78.22
2022-12-27T07:05:12.816Z,78.02
2022-12-27T07:06:12.804Z,78.02
2022-12-27T07:07:15.874Z,78.02
2022-12-27T07:08:12.778Z,77.91
2022-12-27T07:09:12.783Z,78.33
2022-12-27T07:10:12.757Z,77.70
2022-12-27T07:11:12.761Z,78.43
2022-12-27T07:12:12.760Z,78.12
2022-12-27T07:13:12.756Z,78.33
2022-12-27T07:14:12.717Z,77.81
2022-12-27T07:15:12.708Z,77.70
2022-12-27T07:16:12.814Z,77.60
2022-12-27T07:17:12.715Z,77.81
2022-12-27T07:18:12.668Z,78.12
2022-12-27T07:19:12.686Z,77.60
2022-12-27T07:20:12.690Z,77.29
2022-12-27T07:21:12.647Z,78.02
2022-12-27T07:22:12.631Z,78.02
2022-12-27T07:23:17.327Z,78.02
2022-12-27T07:24:13.607Z,77.70
2022-12-27T07:25:12.644Z,77.70
2022-12-27T07:26:12.587Z,77.70
2022-12-27T07:27:12.579Z,77.70
2022-12-27T07:28:12.594Z,77.50
2022-12-27T07:29:12.575Z,77.60
2022-12-27T07:30:12.544Z,78.53
2022-12-27T07:31:12.546Z,78.22
2022-12-27T07:32:12.520Z,78.22
2022-12-27T07:33:19.627Z,77.91
2022-12-27T07:34:12.521Z,78.22
2022-12-27T07:35:12.501Z,78.12
2022-12-27T07:36:12.483Z,78.12
2022-12-27T07:37:12.472Z,77.81
2022-12-27T07:38:15.635Z,77.70
2022-12-27T07:39:12.461Z,77.91
2022-12-27T07:40:12.459Z,78.12
2022-12-27T07:41:12.451Z,78.33
2022-12-27T07:42:12.425Z,77.98
2022-12-27T07:43:12.423Z,77.70
2022-12-27T07:44:12.402Z,78.08
2022-12-27T07:45:12.411Z,77.56
2022-12-27T07:46:12.410Z,78.08
2022-12-27T07:47:12.366Z,77.56
2022-12-27T07:48:12.368Z,77.36
2022-12-27T07:49:17.423Z,77.77
2022-12-27T07:50:13.351Z,77.67
2022-12-27T07:51:12.329Z,77.01
2022-12-27T07:52:12.309Z,76.91
2022-12-27T07:53:12.319Z,76.91
2022-12-27T07:54:12.303Z,76.70
2022-12-27T07:55:12.283Z,77.12
2022-12-27T07:56:12.296Z,76.70
2022-12-27T07:57:12.258Z,76.70
2022-12-27T07:58:12.263Z,76.39
2022-12-27T07:59:12.239Z,76.50
2022-12-27T08:00:12.225Z,76.60
2022-12-27T08:01:12.357Z,76.15
2022-12-27T08:02:12.301Z,76.36
2022-12-27T08:03:12.287Z,76.18
2022-12-27T08:04:12.184Z,76.18
2022-12-27T08:05:12.189Z,76.50
2022-12-27T08:06:12.163Z,76.81
2022-12-27T08:07:12.151Z,76.50
2022-12-27T08:08:12.151Z,76.70
2022-12-27T08:09:12.136Z,76.60
2022-12-27T08:10:12.125Z,76.60
2022-12-27T08:11:12.108Z,76.70
2022-12-27T08:12:12.100Z,76.50
2022-12-27T08:13:12.117Z,76.39
2022-12-27T08:14:12.079Z,76.50
2022-12-27T08:15:12.068Z,76.60
2022-12-27T08:16:12.052Z,76.70
2022-12-27T08:17:12.067Z,76.60
2022-12-27T08:18:12.049Z,76.29
2022-12-27T08:19:12.023Z,76.18
2022-12-27T08:20:12.035Z,76.29
2022-12-27T08:21:12.003Z,76.29
2022-12-27T08:22:11.988Z,76.70
2022-12-27T08:23:11.995Z,76.60
2022-12-27T08:24:11.971Z,76.39
2022-12-27T08:25:11.956Z,76.29
2022-12-27T08:26:11.958Z,76.50
2022-12-27T08:27:11.936Z,76.29
2022-12-27T08:28:11.952Z,76.56
2022-12-27T08:29:11.917Z,76.46
2022-12-27T08:30:11.927Z,76.67
2022-12-27T08:31:11.944Z,76.81
2022-12-27T08:32:11.884Z,76.46
2022-12-27T08:33:11.910Z,76.56
2022-12-27T08:34:11.884Z,76.56
2022-12-27T08:35:50.313Z,76.67
2022-12-27T08:36:45.063Z,76.67
2022-12-27T08:37:12.826Z,76.87
2022-12-27T08:38:11.837Z,76.56
2022-12-27T08:39:11.820Z,76.56
2022-12-27T08:40:11.808Z,76.98
2022-12-27T08:41:11.786Z,76.67
2022-12-27T08:42:11.774Z,76.46
2022-12-27T08:43:11.779Z,76.98
2022-12-27T08:44:11.753Z,76.64
2022-12-27T08:45:11.745Z,76.67
2022-12-27T08:46:11.842Z,76.32
2022-12-27T08:47:11.729Z,76.46
2022-12-27T08:48:11.768Z,76.77
2022-12-27T08:49:11.714Z,76.64
2022-12-27T08:50:11.684Z,76.43
2022-12-27T08:51:14.529Z,76.64
2022-12-27T08:52:11.667Z,76.43
2022-12-27T08:53:11.692Z,76.64
2022-12-27T08:54:11.640Z,76.12
2022-12-27T08:55:11.633Z,76.12
2022-12-27T08:56:11.623Z,75.91
2022-12-27T08:57:11.608Z,76.01
2022-12-27T08:58:16.084Z,75.91
2022-12-27T08:59:12.596Z,76.22
2022-12-27T09:00:11.577Z,75.91
2022-12-27T09:01:11.743Z,76.22
2022-12-27T09:02:11.686Z,76.22
2022-12-27T09:03:11.651Z,76.12
2022-12-27T09:04:11.542Z,76.32
2022-12-27T09:05:11.543Z,76.22
2022-12-27T09:06:11.520Z,76.32
2022-12-27T09:07:11.505Z,76.12
2022-12-27T09:08:11.513Z,76.12
2022-12-27T09:09:11.484Z,76.12
2022-12-27T09:10:11.479Z,76.12
2022-12-27T09:11:11.463Z,76.12
2022-12-27T09:12:11.457Z,76.12
2022-12-27T09:13:11.456Z,76.32
2022-12-27T09:14:11.436Z,75.91
2022-12-27T09:15:11.418Z,76.01
2022-12-27T09:16:11.440Z,76.22
2022-12-27T09:17:11.398Z,76.01
2022-12-27T09:18:11.398Z,75.91
2022-12-27T09:19:11.385Z,75.81
2022-12-27T09:20:11.364Z,76.18
2022-12-27T09:21:11.493Z,76.01
2022-12-27T09:22:11.359Z,76.01
2022-12-27T09:23:11.359Z,75.98
2022-12-27T09:24:11.315Z,76.08
2022-12-27T09:25:11.384Z,76.39
2022-12-27T09:26:11.291Z,76.08
2022-12-27T09:27:11.284Z,76.18
2022-12-27T09:28:11.287Z,75.95
2022-12-27T09:29:11.266Z,75.98
2022-12-27T09:30:11.254Z,75.74
2022-12-27T09:31:11.302Z,75.84
2022-12-27T09:32:11.226Z,75.29
2022-12-27T09:33:11.232Z,74.88
2022-12-27T09:34:11.212Z,74.43
2022-12-27T09:35:11.215Z,73.47
2022-12-27T09:36:11.186Z,72.85
2022-12-27T09:37:11.221Z,72.78
2022-12-27T09:38:11.174Z,72.99
2022-12-27T09:39:11.161Z,73.71
2022-12-27T09:40:11.144Z,73.26
2022-12-27T09:41:11.137Z,71.72
2022-12-27T09:42:49.608Z,70.94
2022-12-27T09:43:22.301Z,69.70
2022-12-27T09:44:12.132Z,69.02
2022-12-27T09:45:11.089Z,67.41
2022-12-27T09:46:11.129Z,66.22
2022-12-27T09:47:11.084Z,65.41
2022-12-27T09:48:11.063Z,65.74
2022-12-27T09:49:11.050Z,65.23
2022-12-27T09:50:11.032Z,65.30
2022-12-27T09:51:11.018Z,64.79
2022-12-27T09:52:11.009Z,65.03
2022-12-27T09:53:11.038Z,65.77
2022-12-27T09:54:10.995Z,66.70
2022-12-27T09:55:10.977Z,66.52
2022-12-27T09:56:10.993Z,66.96
2022-12-27T09:57:19.836Z,67.82
2022-12-27T09:58:11.956Z,68.46
2022-12-27T09:59:10.932Z,68.88
2022-12-27T10:00:10.930Z,69.73
2022-12-27T10:01:11.034Z,69.84
2022-12-27T10:02:11.059Z,69.90
2022-12-27T10:03:10.904Z,68.88
2022-12-27T10:04:10.937Z,66.87
2022-12-27T10:05:20.234Z,65.48
2022-12-27T10:06:11.896Z,64.50
2022-12-27T10:07:10.855Z,64.73
2022-12-27T10:08:10.850Z,64.53
2022-12-27T10:09:10.849Z,64.45
2022-12-27T10:10:10.806Z,64.18
2022-12-27T10:11:10.815Z,64.62
2022-12-27T10:12:10.819Z,65.07
2022-12-27T10:13:10.793Z,64.94
2022-12-27T10:14:10.772Z,64.39
2022-12-27T10:15:10.755Z,64.57
2022-12-27T10:16:10.774Z,64.62
2022-12-27T10:17:10.737Z,64.86
2022-12-27T10:18:10.747Z,65.10
2022-12-27T10:19:10.710Z,65.33
2022-12-27T10:20:10.700Z,65.58
2022-12-27T10:21:10.710Z,65.14
2022-12-27T10:22:10.710Z,65.04
2022-12-27T10:23:10.696Z,64.29
2022-12-27T10:24:10.663Z,64.60
2022-12-27T10:25:10.679Z,64.18
2022-12-27T10:26:10.649Z,64.42
2022-12-27T10:27:10.627Z,65.24
2022-12-27T10:28:10.637Z,65.37
2022-12-27T10:29:10.612Z,65.34
2022-12-27T10:30:10.616Z,65.37
2022-12-27T10:31:10.619Z,65.71
2022-12-27T10:32:10.578Z,66.25
2022-12-27T10:33:10.579Z,66.67
2022-12-27T10:34:10.941Z,66.80
2022-12-27T10:35:10.546Z,67.35
2022-12-27T10:36:10.527Z,68.27
2022-12-27T10:37:10.519Z,69.02
2022-12-27T10:38:10.569Z,68.81
2022-12-27T10:39:10.680Z,68.91
2022-12-27T10:40:10.495Z,69.67
2022-12-27T10:41:10.486Z,70.42
2022-12-27T10:42:10.473Z,70.73
2022-12-27T10:43:10.454Z,71.04
2022-12-27T10:44:10.470Z,71.04
2022-12-27T10:45:10.427Z,71.37
2022-12-27T10:46:10.438Z,71.69
2022-12-27T10:47:10.497Z,71.69
2022-12-27T10:48:18.390Z,72.64
2022-12-27T10:49:20.586Z,72.30
2022-12-27T10:50:11.369Z,71.82
2022-12-27T10:51:10.358Z,72.13
2022-12-27T10:52:10.352Z,72.34
2022-12-27T10:53:10.337Z,72.34
2022-12-27T10:54:10.342Z,72.13
2022-12-27T10:55:10.328Z,72.24
2022-12-27T10:56:10.304Z,72.24
2022-12-27T10:57:10.314Z,72.78
2022-12-27T10:58:10.283Z,73.47
2022-12-27T10:59:10.283Z,73.40
2022-12-27T11:00:10.263Z,72.64
2022-12-27T11:01:10.275Z,73.26
2022-12-27T11:02:10.342Z,73.26
2022-12-27T11:03:10.233Z,72.68
2022-12-27T11:04:15.968Z,73.06
2022-12-27T11:06:21.082Z,72.64
2022-12-27T11:07:21.066Z,73.16
2022-12-27T11:08:21.074Z,74.02
2022-12-27T11:09:21.056Z,73.81
2022-12-27T11:10:21.035Z,73.30
2022-12-27T11:11:21.022Z,73.30
2022-12-27T11:12:21.036Z,73.61
2022-12-27T11:13:21.006Z,73.81
2022-12-27T11:14:21.002Z,74.02
2022-12-27T11:15:20.981Z,74.22
2022-12-27T11:16:20.994Z,74.12
2022-12-27T11:17:20.955Z,74.33
2022-12-27T11:18:20.949Z,74.53
2022-12-27T11:19:28.042Z,74.63
2022-12-27T11:20:20.919Z,74.63
2022-12-27T11:21:27.506Z,74.53
2022-12-27T11:22:21.906Z,74.63
2022-12-27T11:23:20.889Z,74.63
2022-12-27T11:24:20.894Z,74.84
2022-12-27T11:25:20.920Z,75.05
2022-12-27T11:26:20.855Z,74.74
2022-12-27T11:27:20.845Z,74.53
2022-12-27T11:28:20.855Z,74.53
2022-12-27T11:29:20.840Z,74.16
2022-12-27T11:30:20.817Z,74.57
2022-12-27T11:31:20.819Z,74.88
2022-12-27T11:32:20.801Z,74.98
2022-12-27T11:33:28.730Z,75.08
2022-12-27T11:34:20.784Z,75.39
2022-12-27T11:35:20.774Z,75.39
2022-12-27T11:36:20.751Z,75.29
2022-12-27T11:37:20.753Z,75.18
2022-12-27T11:38:20.725Z,75.18
2022-12-27T11:39:20.755Z,75.18
2022-12-27T11:40:20.707Z,75.39
2022-12-27T11:41:26.062Z,75.49
2022-12-27T11:42:21.683Z,75.39
2022-12-27T11:43:20.688Z,75.84
2022-12-27T11:44:20.691Z,75.70
2022-12-27T11:45:20.657Z,75.84
2022-12-27T11:46:20.701Z,75.73
2022-12-27T11:47:20.634Z,75.84
2022-12-27T11:48:20.616Z,76.04
2022-12-27T11:49:20.629Z,76.25
2022-12-27T11:50:20.603Z,76.42
2022-12-27T11:51:20.613Z,76.42
2022-12-27T11:52:20.583Z,76.11
2022-12-27T11:53:20.589Z,75.90
2022-12-27T11:54:20.565Z,75.49
2022-12-27T11:55:20.545Z,75.70
2022-12-27T11:56:20.530Z,75.35
2022-12-27T11:57:20.545Z,75.35
2022-12-27T11:58:20.507Z,75.15
2022-12-27T11:59:20.512Z,74.74
2022-12-27T12:00:20.512Z,74.63
2022-12-27T12:01:20.503Z,74.43
2022-12-27T12:02:20.565Z,74.57
2022-12-27T12:03:20.533Z,74.12
2022-12-27T12:04:20.467Z,74.12
2022-12-27T12:05:20.436Z,74.26
2022-12-27T12:06:20.423Z,74.46
2022-12-27T12:07:20.414Z,74.36
2022-12-27T12:08:20.403Z,74.77
2022-12-27T12:09:20.414Z,74.88
2022-12-27T12:10:20.389Z,74.88
2022-12-27T12:11:20.370Z,74.63
2022-12-27T12:12:20.358Z,74.88
2022-12-27T12:13:20.349Z,74.63
2022-12-27T12:14:20.357Z,74.53
2022-12-27T12:15:20.353Z,74.46
2022-12-27T12:16:20.379Z,74.22
2022-12-27T12:17:20.308Z,74.36
2022-12-27T12:18:20.296Z,74.67
2022-12-27T12:19:20.297Z,74.88
2022-12-27T12:20:20.271Z,74.63
2022-12-27T12:21:20.262Z,74.98
2022-12-27T12:22:20.248Z,75.05
2022-12-27T12:23:20.244Z,74.12
2022-12-27T12:24:20.240Z,74.22
2022-12-27T12:25:20.220Z,74.02
2022-12-27T12:26:20.208Z,74.16
2022-12-27T12:27:20.197Z,74.33
2022-12-27T12:28:55.833Z,74.12
2022-12-27T12:29:21.194Z,74.12
2022-12-27T12:30:26.867Z,74.43
2022-12-27T12:31:21.226Z,74.22
2022-12-27T12:32:20.182Z,73.91
2022-12-27T12:33:20.132Z,74.12
2022-12-27T12:34:20.123Z,74.02
2022-12-27T12:35:20.126Z,74.12
2022-12-27T12:36:20.101Z,74.33
2022-12-27T12:37:20.088Z,74.63
2022-12-27T12:38:20.083Z,74.12
2022-12-27T12:39:20.069Z,74.33
2022-12-27T12:40:20.070Z,74.22
2022-12-27T12:41:20.045Z,74.22
2022-12-27T12:42:20.047Z,74.22
2022-12-27T12:43:20.030Z,74.02
2022-12-27T12:44:20.019Z,74.36
2022-12-27T12:45:20.010Z,74.67
2022-12-27T12:46:20.043Z,74.36
2022-12-27T12:47:19.980Z,74.46
2022-12-27T12:48:19.987Z,74.46
2022-12-27T12:49:19.965Z,74.46
2022-12-27T12:50:19.962Z,74.57
2022-12-27T12:51:19.947Z,74.57
2022-12-27T12:52:19.931Z,74.77
2022-12-27T12:53:19.919Z,74.67